Terminal Aerodrome Forecast
Issued by NWS

Current Version | Previous Version | Graphics & Text | Print | Product List | Glossary On
Versions: 1 2 3 4 5 6 7 8 9 10 11 12 13 14 15 16 17 18 19 20 21 22 23 24 25 26
000
FTUS41 KILN 260500
TAFLUK
TAF
KLUK 260527Z 2606/2706 19004KT 5SM BR SCT025 SCT040 BKN250
      TEMPO 2606/2610 BKN025
     FM261300 21012G20KT P6SM SCT028 BKN250
     FM261500 21014G22KT P6SM BKN040
     FM261800 21014G24KT P6SM VCTS BKN040CB
     FM270100 21010KT P6SM BKN040=

USA.gov is the U.S. government's official web portal to all federal, state and local government web resources and services.